sensor_id;sensor_type;location;lat;lon;timestamp;P1;durP1;ratioP1;P2;durP2;ratioP2
18042;SDS011;9146;48.074;11.968;2023-12-22T00:02:06;4.97;;;0.90;;
18042;SDS011;9146;48.074;11.968;2023-12-22T00:04:33;0.83;;;0.83;;
18042;SDS011;9146;48.074;11.968;2023-12-22T00:07:00;0.80;;;0.80;;
18042;SDS011;9146;48.074;11.968;2023-12-22T00:09:27;1.20;;;0.70;;
18042;SDS011;9146;48.074;11.968;2023-12-22T00:11:54;1.90;;;0.93;;
18042;SDS011;9146;48.074;11.968;2023-12-22T00:14:22;1.27;;;1.17;;
18042;SDS011;9146;48.074;11.968;2023-12-22T00:16:49;1.93;;;0.80;;
18042;SDS011;9146;48.074;11.968;2023-12-22T00:19:16;3.50;;;0.90;;
18042;SDS011;9146;48.074;11.968;2023-12-22T00:21:43;3.00;;;1.13;;
18042;SDS011;9146;48.074;11.968;2023-12-22T00:24:09;6.10;;;1.17;;
18042;SDS011;9146;48.074;11.968;2023-12-22T00:26:38;3.23;;;1.00;;
18042;SDS011;9146;48.074;11.968;2023-12-22T00:29:05;0.93;;;0.80;;
18042;SDS011;9146;48.074;11.968;2023-12-22T00:31:33;0.70;;;0.70;;
18042;SDS011;9146;48.074;11.968;2023-12-22T00:34:00;2.87;;;0.77;;
18042;SDS011;9146;48.074;11.968;2023-12-22T00:36:27;1.70;;;0.70;;
18042;SDS011;9146;48.074;11.968;2023-12-22T00:38:54;0.93;;;0.60;;
18042;SDS011;9146;48.074;11.968;2023-12-22T00:41:21;0.70;;;0.70;;
18042;SDS011;9146;48.074;11.968;2023-12-22T00:43:48;1.03;;;0.70;;
18042;SDS011;9146;48.074;11.968;2023-12-22T00:46:14;0.70;;;0.70;;
18042;SDS011;9146;48.074;11.968;2023-12-22T00:48:43;0.70;;;0.70;;
18042;SDS011;9146;48.074;11.968;2023-12-22T00:51:09;0.60;;;0.60;;
18042;SDS011;9146;48.074;11.968;2023-12-22T00:53:36;0.90;;;0.90;;
18042;SDS011;9146;48.074;11.968;2023-12-22T00:56:03;2.40;;;1.00;;
18042;SDS011;9146;48.074;11.968;2023-12-22T00:58:31;3.80;;;1.70;;
18042;SDS011;9146;48.074;11.968;2023-12-22T01:00:58;0.80;;;0.80;;
18042;SDS011;9146;48.074;11.968;2023-12-22T01:03:24;1.13;;;1.00;;
18042;SDS011;9146;48.074;11.968;2023-12-22T01:05:53;1.93;;;1.10;;
18042;SDS011;9146;48.074;11.968;2023-12-22T01:08:20;2.37;;;1.20;;
18042;SDS011;9146;48.074;11.968;2023-12-22T01:10:47;2.67;;;1.23;;
18042;SDS011;9146;48.074;11.968;2023-12-22T01:13:13;1.03;;;1.03;;
18042;SDS011;9146;48.074;11.968;2023-12-22T01:15:40;1.00;;;1.00;;
18042;SDS011;9146;48.074;11.968;2023-12-22T01:18:08;1.93;;;0.90;;
18042;SDS011;9146;48.074;11.968;2023-12-22T01:20:35;1.20;;;1.10;;
18042;SDS011;9146;48.074;11.968;2023-12-22T01:23:04;1.53;;;1.13;;
18042;SDS011;9146;48.074;11.968;2023-12-22T01:25:31;1.90;;;1.13;;
18042;SDS011;9146;48.074;11.968;2023-12-22T01:27:58;2.50;;;1.30;;
18042;SDS011;9146;48.074;11.968;2023-12-22T01:30:25;5.97;;;1.30;;
18042;SDS011;9146;48.074;11.968;2023-12-22T01:32:51;1.57;;;1.07;;
18042;SDS011;9146;48.074;11.968;2023-12-22T01:35:18;1.40;;;1.30;;
18042;SDS011;9146;48.074;11.968;2023-12-22T01:37:45;3.17;;;1.30;;
18042;SDS011;9146;48.074;11.968;2023-12-22T01:40:16;1.83;;;1.20;;
18042;SDS011;9146;48.074;11.968;2023-12-22T01:42:42;3.37;;;1.30;;
18042;SDS011;9146;48.074;11.968;2023-12-22T01:45:10;5.50;;;1.40;;
18042;SDS011;9146;48.074;11.968;2023-12-22T01:47:37;4.33;;;1.40;;
18042;SDS011;9146;48.074;11.968;2023-12-22T01:50:04;1.23;;;1.13;;
18042;SDS011;9146;48.074;11.968;2023-12-22T01:52:32;1.17;;;1.00;;
18042;SDS011;9146;48.074;11.968;2023-12-22T01:54:58;1.47;;;0.90;;
18042;SDS011;9146;48.074;11.968;2023-12-22T01:57:27;1.50;;;1.40;;
18042;SDS011;9146;48.074;11.968;2023-12-22T01:59:54;5.07;;;1.10;;
18042;SDS011;9146;48.074;11.968;2023-12-22T02:02:22;2.50;;;1.10;;
18042;SDS011;9146;48.074;11.968;2023-12-22T02:04:49;0.80;;;0.80;;
18042;SDS011;9146;48.074;11.968;2023-12-22T02:07:16;2.30;;;1.03;;
18042;SDS011;9146;48.074;11.968;2023-12-22T02:09:43;2.30;;;1.20;;
18042;SDS011;9146;48.074;11.968;2023-12-22T02:12:10;1.10;;;1.00;;
18042;SDS011;9146;48.074;11.968;2023-12-22T02:14:38;3.90;;;1.40;;
18042;SDS011;9146;48.074;11.968;2023-12-22T02:17:07;0.70;;;0.70;;
18042;SDS011;9146;48.074;11.968;2023-12-22T02:19:41;1.50;;;1.17;;
18042;SDS011;9146;48.074;11.968;2023-12-22T02:22:09;1.03;;;0.80;;
18042;SDS011;9146;48.074;11.968;2023-12-22T02:24:39;2.00;;;0.87;;
18042;SDS011;9146;48.074;11.968;2023-12-22T02:27:09;1.60;;;1.10;;
18042;SDS011;9146;48.074;11.968;2023-12-22T02:29:49;1.23;;;0.80;;
18042;SDS011;9146;48.074;11.968;2023-12-22T02:32:21;0.80;;;0.80;;
18042;SDS011;9146;48.074;11.968;2023-12-22T02:34:52;2.40;;;0.90;;
18042;SDS011;9146;48.074;11.968;2023-12-22T02:37:21;0.70;;;0.70;;
18042;SDS011;9146;48.074;11.968;2023-12-22T02:39:51;1.17;;;0.90;;
18042;SDS011;9146;48.074;11.968;2023-12-22T02:42:19;0.80;;;0.80;;
18042;SDS011;9146;48.074;11.968;2023-12-22T02:44:49;0.80;;;0.80;;
18042;SDS011;9146;48.074;11.968;2023-12-22T02:47:17;0.97;;;0.73;;
18042;SDS011;9146;48.074;11.968;2023-12-22T02:49:44;0.67;;;0.60;;
18042;SDS011;9146;48.074;11.968;2023-12-22T02:52:11;0.90;;;0.73;;
18042;SDS011;9146;48.074;11.968;2023-12-22T02:54:38;0.60;;;0.60;;
18042;SDS011;9146;48.074;11.968;2023-12-22T02:57:06;1.03;;;0.63;;
18042;SDS011;9146;48.074;11.968;2023-12-22T02:59:33;0.80;;;0.80;;
18042;SDS011;9146;48.074;11.968;2023-12-22T03:02:00;1.03;;;0.83;;
18042;SDS011;9146;48.074;11.968;2023-12-22T03:04:27;0.80;;;0.80;;
18042;SDS011;9146;48.074;11.968;2023-12-22T03:06:54;1.10;;;1.00;;
18042;SDS011;9146;48.074;11.968;2023-12-22T03:09:21;1.80;;;1.10;;
18042;SDS011;9146;48.074;11.968;2023-12-22T03:11:48;1.50;;;0.93;;
18042;SDS011;9146;48.074;11.968;2023-12-22T03:14:18;0.93;;;0.90;;
18042;SDS011;9146;48.074;11.968;2023-12-22T03:16:45;1.00;;;1.00;;
18042;SDS011;9146;48.074;11.968;2023-12-22T03:19:11;1.00;;;0.90;;
18042;SDS011;9146;48.074;11.968;2023-12-22T03:21:38;1.10;;;1.10;;
18042;SDS011;9146;48.074;11.968;2023-12-22T03:24:05;1.63;;;1.53;;
18042;SDS011;9146;48.074;11.968;2023-12-22T03:26:32;1.20;;;1.20;;
18042;SDS011;9146;48.074;11.968;2023-12-22T03:28:59;5.27;;;1.47;;
18042;SDS011;9146;48.074;11.968;2023-12-22T03:31:27;1.57;;;1.47;;
18042;SDS011;9146;48.074;11.968;2023-12-22T03:33:54;1.43;;;1.10;;
18042;SDS011;9146;48.074;11.968;2023-12-22T03:36:21;1.47;;;1.40;;
18042;SDS011;9146;48.074;11.968;2023-12-22T03:38:48;1.20;;;1.20;;
18042;SDS011;9146;48.074;11.968;2023-12-22T03:41:15;1.50;;;1.40;;
18042;SDS011;9146;48.074;11.968;2023-12-22T03:43:44;2.80;;;1.50;;
18042;SDS011;9146;48.074;11.968;2023-12-22T03:46:10;3.03;;;1.30;;
18042;SDS011;9146;48.074;11.968;2023-12-22T03:48:39;1.60;;;1.50;;
18042;SDS011;9146;48.074;11.968;2023-12-22T03:51:06;2.07;;;1.70;;
18042;SDS011;9146;48.074;11.968;2023-12-22T03:53:33;2.80;;;2.00;;
18042;SDS011;9146;48.074;11.968;2023-12-22T03:56:00;1.53;;;1.50;;
18042;SDS011;9146;48.074;11.968;2023-12-22T03:58:27;2.33;;;1.60;;
18042;SDS011;9146;48.074;11.968;2023-12-22T04:00:55;1.73;;;1.63;;
18042;SDS011;9146;48.074;11.968;2023-12-22T04:03:21;1.93;;;1.83;;
18042;SDS011;9146;48.074;11.968;2023-12-22T04:05:50;5.53;;;2.40;;
18042;SDS011;9146;48.074;11.968;2023-12-22T04:08:17;3.13;;;2.60;;
18042;SDS011;9146;48.074;11.968;2023-12-22T04:10:45;2.40;;;2.20;;
18042;SDS011;9146;48.074;11.968;2023-12-22T04:13:14;2.50;;;2.27;;
18042;SDS011;9146;48.074;11.968;2023-12-22T04:15:41;3.30;;;2.73;;
18042;SDS011;9146;48.074;11.968;2023-12-22T04:18:09;3.00;;;2.50;;
18042;SDS011;9146;48.074;11.968;2023-12-22T04:20:36;3.03;;;2.33;;
18042;SDS011;9146;48.074;11.968;2023-12-22T04:23:04;4.33;;;2.03;;
18042;SDS011;9146;48.074;11.968;2023-12-22T04:25:31;2.67;;;2.47;;
18042;SDS011;9146;48.074;11.968;2023-12-22T04:27:58;2.17;;;1.97;;
18042;SDS011;9146;48.074;11.968;2023-12-22T04:30:25;2.43;;;2.17;;
18042;SDS011;9146;48.074;11.968;2023-12-22T04:32:52;4.20;;;1.80;;
18042;SDS011;9146;48.074;11.968;2023-12-22T04:35:21;2.30;;;2.10;;
18042;SDS011;9146;48.074;11.968;2023-12-22T04:37:48;3.43;;;2.23;;
18042;SDS011;9146;48.074;11.968;2023-12-22T04:40:18;3.13;;;1.90;;
18042;SDS011;9146;48.074;11.968;2023-12-22T04:42:45;1.60;;;1.50;;
18042;SDS011;9146;48.074;11.968;2023-12-22T04:45:12;2.40;;;2.20;;
18042;SDS011;9146;48.074;11.968;2023-12-22T04:47:39;1.90;;;1.80;;
18042;SDS011;9146;48.074;11.968;2023-12-22T04:50:06;1.30;;;1.20;;
18042;SDS011;9146;48.074;11.968;2023-12-22T04:52:33;1.70;;;1.60;;
18042;SDS011;9146;48.074;11.968;2023-12-22T04:55:00;4.00;;;1.23;;
18042;SDS011;9146;48.074;11.968;2023-12-22T04:57:28;2.13;;;1.30;;
18042;SDS011;9146;48.074;11.968;2023-12-22T04:59:55;2.67;;;1.20;;
18042;SDS011;9146;48.074;11.968;2023-12-22T05:02:22;1.20;;;1.03;;
18042;SDS011;9146;48.074;11.968;2023-12-22T05:04:49;3.23;;;1.20;;
18042;SDS011;9146;48.074;11.968;2023-12-22T05:07:16;3.60;;;1.57;;
18042;SDS011;9146;48.074;11.968;2023-12-22T05:09:43;1.43;;;1.30;;
18042;SDS011;9146;48.074;11.968;2023-12-22T05:12:10;3.30;;;1.90;;
18042;SDS011;9146;48.074;11.968;2023-12-22T05:14:38;1.47;;;1.37;;
18042;SDS011;9146;48.074;11.968;2023-12-22T05:17:05;2.83;;;1.20;;
18042;SDS011;9146;48.074;11.968;2023-12-22T05:19:32;2.60;;;1.50;;
18042;SDS011;9146;48.074;11.968;2023-12-22T05:21:58;2.93;;;1.73;;
18042;SDS011;9146;48.074;11.968;2023-12-22T05:24:25;2.00;;;1.37;;
18042;SDS011;9146;48.074;11.968;2023-12-22T05:26:53;3.87;;;1.43;;
18042;SDS011;9146;48.074;11.968;2023-12-22T05:29:20;6.83;;;1.87;;
18042;SDS011;9146;48.074;11.968;2023-12-22T05:31:48;2.27;;;1.47;;
18042;SDS011;9146;48.074;11.968;2023-12-22T05:34:15;4.37;;;1.87;;
18042;SDS011;9146;48.074;11.968;2023-12-22T05:36:42;11.23;;;2.07;;
18042;SDS011;9146;48.074;11.968;2023-12-22T05:39:09;2.20;;;1.60;;
18042;SDS011;9146;48.074;11.968;2023-12-22T05:41:35;2.97;;;1.70;;
18042;SDS011;9146;48.074;11.968;2023-12-22T05:44:03;8.40;;;1.47;;
18042;SDS011;9146;48.074;11.968;2023-12-22T05:46:30;4.10;;;1.90;;
18042;SDS011;9146;48.074;11.968;2023-12-22T05:48:58;4.77;;;1.87;;
18042;SDS011;9146;48.074;11.968;2023-12-22T05:51:25;3.93;;;1.50;;
18042;SDS011;9146;48.074;11.968;2023-12-22T05:53:52;2.03;;;1.40;;
18042;SDS011;9146;48.074;11.968;2023-12-22T05:56:19;8.60;;;1.57;;
18042;SDS011;9146;48.074;11.968;2023-12-22T05:58:48;2.50;;;1.80;;
18042;SDS011;9146;48.074;11.968;2023-12-22T06:01:16;3.07;;;1.33;;
18042;SDS011;9146;48.074;11.968;2023-12-22T06:03:43;1.83;;;1.47;;
18042;SDS011;9146;48.074;11.968;2023-12-22T06:06:12;3.67;;;1.33;;
18042;SDS011;9146;48.074;11.968;2023-12-22T06:08:38;4.13;;;1.43;;
18042;SDS011;9146;48.074;11.968;2023-12-22T06:11:05;0.87;;;0.87;;
18042;SDS011;9146;48.074;11.968;2023-12-22T06:13:32;1.30;;;1.30;;
18042;SDS011;9146;48.074;11.968;2023-12-22T06:15:59;0.80;;;0.80;;
18042;SDS011;9146;48.074;11.968;2023-12-22T06:18:26;1.63;;;0.83;;
18042;SDS011;9146;48.074;11.968;2023-12-22T06:20:53;0.90;;;0.90;;
18042;SDS011;9146;48.074;11.968;2023-12-22T06:23:21;1.03;;;0.90;;
18042;SDS011;9146;48.074;11.968;2023-12-22T06:25:48;0.90;;;0.90;;
18042;SDS011;9146;48.074;11.968;2023-12-22T06:28:15;1.30;;;1.20;;
18042;SDS011;9146;48.074;11.968;2023-12-22T06:30:43;3.20;;;1.03;;
18042;SDS011;9146;48.074;11.968;2023-12-22T06:33:12;2.10;;;1.00;;
18042;SDS011;9146;48.074;11.968;2023-12-22T06:35:39;2.07;;;1.30;;
18042;SDS011;9146;48.074;11.968;2023-12-22T06:38:06;1.10;;;1.10;;
18042;SDS011;9146;48.074;11.968;2023-12-22T06:40:37;1.07;;;1.07;;
18042;SDS011;9146;48.074;11.968;2023-12-22T06:43:04;1.10;;;1.10;;
18042;SDS011;9146;48.074;11.968;2023-12-22T06:45:31;1.53;;;1.20;;
18042;SDS011;9146;48.074;11.968;2023-12-22T06:47:58;3.63;;;1.50;;
18042;SDS011;9146;48.074;11.968;2023-12-22T06:50:25;3.50;;;1.40;;
18042;SDS011;9146;48.074;11.968;2023-12-22T06:52:52;1.53;;;1.43;;
18042;SDS011;9146;48.074;11.968;2023-12-22T06:55:19;3.20;;;1.50;;
18042;SDS011;9146;48.074;11.968;2023-12-22T06:57:47;5.10;;;1.43;;
18042;SDS011;9146;48.074;11.968;2023-12-22T07:00:14;6.63;;;1.50;;
18042;SDS011;9146;48.074;11.968;2023-12-22T07:02:42;2.93;;;1.30;;
18042;SDS011;9146;48.074;11.968;2023-12-22T07:07:59;5.90;;;1.77;;
18042;SDS011;9146;48.074;11.968;2023-12-22T07:10:26;7.57;;;1.90;;
18042;SDS011;9146;48.074;11.968;2023-12-22T07:12:54;1.73;;;1.60;;
18042;SDS011;9146;48.074;11.968;2023-12-22T07:15:21;3.20;;;2.10;;
18042;SDS011;9146;48.074;11.968;2023-12-22T07:17:48;3.87;;;1.47;;
18042;SDS011;9146;48.074;11.968;2023-12-22T07:20:15;8.10;;;2.47;;
18042;SDS011;9146;48.074;11.968;2023-12-22T07:22:44;6.47;;;1.47;;
18042;SDS011;9146;48.074;11.968;2023-12-22T07:25:10;9.40;;;1.80;;
18042;SDS011;9146;48.074;11.968;2023-12-22T07:27:37;4.63;;;2.10;;
18042;SDS011;9146;48.074;11.968;2023-12-22T07:30:06;7.27;;;2.17;;
18042;SDS011;9146;48.074;11.968;2023-12-22T07:32:36;7.47;;;1.80;;
18042;SDS011;9146;48.074;11.968;2023-12-22T07:35:03;9.80;;;2.03;;
18042;SDS011;9146;48.074;11.968;2023-12-22T07:37:39;2.93;;;1.70;;
18042;SDS011;9146;48.074;11.968;2023-12-22T07:40:08;2.30;;;1.50;;
18042;SDS011;9146;48.074;11.968;2023-12-22T07:42:35;2.30;;;1.10;;
18042;SDS011;9146;48.074;11.968;2023-12-22T07:45:07;1.33;;;1.10;;
18042;SDS011;9146;48.074;11.968;2023-12-22T07:47:37;5.13;;;1.23;;
18042;SDS011;9146;48.074;11.968;2023-12-22T07:50:04;3.73;;;1.50;;
18042;SDS011;9146;48.074;11.968;2023-12-22T07:52:33;1.37;;;0.90;;
18042;SDS011;9146;48.074;11.968;2023-12-22T07:55:03;1.13;;;1.13;;
18042;SDS011;9146;48.074;11.968;2023-12-22T07:57:31;1.00;;;1.00;;
18042;SDS011;9146;48.074;11.968;2023-12-22T07:59:58;3.67;;;1.13;;
18042;SDS011;9146;48.074;11.968;2023-12-22T08:02:27;4.07;;;1.00;;
18042;SDS011;9146;48.074;11.968;2023-12-22T08:04:54;4.37;;;1.00;;
18042;SDS011;9146;48.074;11.968;2023-12-22T08:07:21;3.43;;;1.63;;
18042;SDS011;9146;48.074;11.968;2023-12-22T08:09:48;1.30;;;1.20;;
18042;SDS011;9146;48.074;11.968;2023-12-22T08:12:15;3.70;;;1.43;;
18042;SDS011;9146;48.074;11.968;2023-12-22T08:14:42;2.13;;;1.60;;
18042;SDS011;9146;48.074;11.968;2023-12-22T08:17:08;1.07;;;1.07;;
18042;SDS011;9146;48.074;11.968;2023-12-22T08:19:37;1.10;;;1.00;;
18042;SDS011;9146;48.074;11.968;2023-12-22T08:22:04;2.97;;;0.80;;
18042;SDS011;9146;48.074;11.968;2023-12-22T08:24:31;2.10;;;0.90;;
18042;SDS011;9146;48.074;11.968;2023-12-22T08:26:58;1.70;;;1.60;;
18042;SDS011;9146;48.074;11.968;2023-12-22T08:29:24;2.23;;;1.07;;
18042;SDS011;9146;48.074;11.968;2023-12-22T08:31:51;0.97;;;0.97;;
18042;SDS011;9146;48.074;11.968;2023-12-22T08:34:18;1.17;;;1.00;;
18042;SDS011;9146;48.074;11.968;2023-12-22T08:36:47;1.10;;;1.00;;
18042;SDS011;9146;48.074;11.968;2023-12-22T08:39:13;2.73;;;1.40;;
18042;SDS011;9146;48.074;11.968;2023-12-22T08:41:40;4.07;;;1.70;;
18042;SDS011;9146;48.074;11.968;2023-12-22T08:44:07;1.50;;;1.40;;
18042;SDS011;9146;48.074;11.968;2023-12-22T08:46:35;3.50;;;2.37;;
18042;SDS011;9146;48.074;11.968;2023-12-22T08:49:02;1.70;;;1.40;;
18042;SDS011;9146;48.074;11.968;2023-12-22T08:51:29;1.67;;;1.57;;
18042;SDS011;9146;48.074;11.968;2023-12-22T08:53:57;6.00;;;1.90;;
18042;SDS011;9146;48.074;11.968;2023-12-22T08:56:24;2.00;;;1.80;;
18042;SDS011;9146;48.074;11.968;2023-12-22T08:58:52;13.73;;;1.97;;
18042;SDS011;9146;48.074;11.968;2023-12-22T09:01:20;1.50;;;1.40;;
18042;SDS011;9146;48.074;11.968;2023-12-22T09:03:48;3.50;;;1.93;;
18042;SDS011;9146;48.074;11.968;2023-12-22T09:06:15;5.00;;;2.17;;
18042;SDS011;9146;48.074;11.968;2023-12-22T09:08:42;4.00;;;1.70;;
18042;SDS011;9146;48.074;11.968;2023-12-22T09:11:11;7.10;;;2.20;;
18042;SDS011;9146;48.074;11.968;2023-12-22T09:13:40;8.97;;;2.73;;
18042;SDS011;9146;48.074;11.968;2023-12-22T09:16:07;10.83;;;2.70;;
18042;SDS011;9146;48.074;11.968;2023-12-22T09:18:34;7.43;;;2.43;;
18042;SDS011;9146;48.074;11.968;2023-12-22T09:21:02;6.60;;;2.90;;
18042;SDS011;9146;48.074;11.968;2023-12-22T09:23:29;7.53;;;2.57;;
18042;SDS011;9146;48.074;11.968;2023-12-22T09:25:57;11.40;;;3.13;;
18042;SDS011;9146;48.074;11.968;2023-12-22T09:28:25;6.40;;;2.60;;
18042;SDS011;9146;48.074;11.968;2023-12-22T09:30:52;7.50;;;2.93;;
18042;SDS011;9146;48.074;11.968;2023-12-22T09:33:19;4.63;;;2.23;;
18042;SDS011;9146;48.074;11.968;2023-12-22T09:35:47;6.50;;;2.87;;
18042;SDS011;9146;48.074;11.968;2023-12-22T09:38:14;9.07;;;3.40;;
18042;SDS011;9146;48.074;11.968;2023-12-22T09:40:41;6.63;;;3.53;;
18042;SDS011;9146;48.074;11.968;2023-12-22T09:43:08;6.03;;;2.90;;
18042;SDS011;9146;48.074;11.968;2023-12-22T09:45:37;7.60;;;3.03;;
18042;SDS011;9146;48.074;11.968;2023-12-22T09:48:05;12.97;;;3.17;;
18042;SDS011;9146;48.074;11.968;2023-12-22T09:50:35;5.13;;;3.07;;
18042;SDS011;9146;48.074;11.968;2023-12-22T09:53:04;10.70;;;2.80;;
18042;SDS011;9146;48.074;11.968;2023-12-22T09:55:32;6.47;;;2.27;;
18042;SDS011;9146;48.074;11.968;2023-12-22T09:58:02;10.63;;;2.70;;
18042;SDS011;9146;48.074;11.968;2023-12-22T10:00:31;9.17;;;2.57;;
18042;SDS011;9146;48.074;11.968;2023-12-22T10:03:00;7.37;;;2.17;;
18042;SDS011;9146;48.074;11.968;2023-12-22T10:05:27;9.63;;;2.37;;
18042;SDS011;9146;48.074;11.968;2023-12-22T10:07:55;6.60;;;2.23;;
18042;SDS011;9146;48.074;11.968;2023-12-22T10:10:23;3.97;;;2.50;;
18042;SDS011;9146;48.074;11.968;2023-12-22T10:12:51;4.40;;;1.90;;
18042;SDS011;9146;48.074;11.968;2023-12-22T10:15:19;6.63;;;1.67;;
18042;SDS011;9146;48.074;11.968;2023-12-22T10:17:49;4.83;;;1.47;;
18042;SDS011;9146;48.074;11.968;2023-12-22T10:20:17;5.77;;;2.07;;
18042;SDS011;9146;48.074;11.968;2023-12-22T10:22:44;3.37;;;1.60;;
18042;SDS011;9146;48.074;11.968;2023-12-22T10:25:11;8.97;;;1.73;;
18042;SDS011;9146;48.074;11.968;2023-12-22T10:27:41;4.37;;;1.80;;
18042;SDS011;9146;48.074;11.968;2023-12-22T10:30:09;9.40;;;2.13;;
18042;SDS011;9146;48.074;11.968;2023-12-22T10:32:39;1.20;;;1.10;;
18042;SDS011;9146;48.074;11.968;2023-12-22T10:35:07;8.13;;;1.73;;
18042;SDS011;9146;48.074;11.968;2023-12-22T10:37:36;4.57;;;1.80;;
18042;SDS011;9146;48.074;11.968;2023-12-22T10:40:05;2.43;;;1.10;;
18042;SDS011;9146;48.074;11.968;2023-12-22T10:42:34;1.10;;;1.10;;
18042;SDS011;9146;48.074;11.968;2023-12-22T10:45:02;3.53;;;1.10;;
18042;SDS011;9146;48.074;11.968;2023-12-22T10:47:30;1.43;;;1.00;;
18042;SDS011;9146;48.074;11.968;2023-12-22T10:49:56;1.27;;;1.00;;
18042;SDS011;9146;48.074;11.968;2023-12-22T10:52:27;0.80;;;0.80;;
18042;SDS011;9146;48.074;11.968;2023-12-22T10:54:58;2.00;;;0.80;;
18042;SDS011;9146;48.074;11.968;2023-12-22T10:57:26;1.33;;;0.93;;
18042;SDS011;9146;48.074;11.968;2023-12-22T10:59:53;1.50;;;1.13;;
18042;SDS011;9146;48.074;11.968;2023-12-22T11:02:23;2.80;;;1.40;;
18042;SDS011;9146;48.074;11.968;2023-12-22T11:04:56;4.30;;;1.30;;
18042;SDS011;9146;48.074;11.968;2023-12-22T11:07:25;1.30;;;1.20;;
18042;SDS011;9146;48.074;11.968;2023-12-22T11:09:56;1.50;;;1.40;;
18042;SDS011;9146;48.074;11.968;2023-12-22T11:12:28;2.63;;;1.33;;
18042;SDS011;9146;48.074;11.968;2023-12-22T11:14:56;1.70;;;1.57;;
18042;SDS011;9146;48.074;11.968;2023-12-22T11:17:28;4.03;;;1.43;;
18042;SDS011;9146;48.074;11.968;2023-12-22T11:19:58;4.73;;;1.67;;
18042;SDS011;9146;48.074;11.968;2023-12-22T11:22:26;1.37;;;1.27;;
18042;SDS011;9146;48.074;11.968;2023-12-22T11:24:53;1.70;;;1.60;;
18042;SDS011;9146;48.074;11.968;2023-12-22T11:27:24;2.23;;;1.77;;
18042;SDS011;9146;48.074;11.968;2023-12-22T11:29:53;6.23;;;2.13;;
18042;SDS011;9146;48.074;11.968;2023-12-22T11:32:20;3.57;;;2.30;;
18042;SDS011;9146;48.074;11.968;2023-12-22T11:34:48;7.67;;;1.87;;
18042;SDS011;9146;48.074;11.968;2023-12-22T11:37:15;4.60;;;2.07;;
18042;SDS011;9146;48.074;11.968;2023-12-22T11:39:42;2.23;;;2.03;;
18042;SDS011;9146;48.074;11.968;2023-12-22T11:42:11;4.90;;;2.80;;
18042;SDS011;9146;48.074;11.968;2023-12-22T11:44:43;4.23;;;1.70;;
18042;SDS011;9146;48.074;11.968;2023-12-22T11:47:10;5.50;;;2.60;;
18042;SDS011;9146;48.074;11.968;2023-12-22T11:49:38;5.70;;;2.17;;
18042;SDS011;9146;48.074;11.968;2023-12-22T11:52:12;4.60;;;1.70;;
18042;SDS011;9146;48.074;11.968;2023-12-22T11:54:46;11.83;;;1.83;;
18042;SDS011;9146;48.074;11.968;2023-12-22T11:57:28;2.93;;;1.37;;
18042;SDS011;9146;48.074;11.968;2023-12-22T11:59:58;3.37;;;1.50;;
18042;SDS011;9146;48.074;11.968;2023-12-22T12:02:25;4.10;;;1.50;;
18042;SDS011;9146;48.074;11.968;2023-12-22T12:04:53;2.00;;;1.90;;
18042;SDS011;9146;48.074;11.968;2023-12-22T12:10:07;4.00;;;2.37;;
18042;SDS011;9146;48.074;11.968;2023-12-22T12:12:34;1.67;;;1.57;;
18042;SDS011;9146;48.074;11.968;2023-12-22T12:15:07;1.77;;;1.40;;
18042;SDS011;9146;48.074;11.968;2023-12-22T12:17:39;5.57;;;1.20;;
18042;SDS011;9146;48.074;11.968;2023-12-22T12:20:08;6.20;;;1.60;;
18042;SDS011;9146;48.074;11.968;2023-12-22T12:22:36;2.93;;;1.50;;
18042;SDS011;9146;48.074;11.968;2023-12-22T12:25:07;4.53;;;1.60;;
18042;SDS011;9146;48.074;11.968;2023-12-22T12:27:36;2.67;;;1.47;;
18042;SDS011;9146;48.074;11.968;2023-12-22T12:30:11;4.47;;;2.30;;
18042;SDS011;9146;48.074;11.968;2023-12-22T12:32:43;6.13;;;2.33;;
18042;SDS011;9146;48.074;11.968;2023-12-22T12:35:11;7.43;;;1.70;;
18042;SDS011;9146;48.074;11.968;2023-12-22T12:37:38;7.70;;;2.20;;
18042;SDS011;9146;48.074;11.968;2023-12-22T12:40:06;9.27;;;4.07;;
18042;SDS011;9146;48.074;11.968;2023-12-22T12:42:35;4.97;;;2.27;;
18042;SDS011;9146;48.074;11.968;2023-12-22T12:45:04;2.17;;;1.80;;
18042;SDS011;9146;48.074;11.968;2023-12-22T12:47:33;4.40;;;2.00;;
18042;SDS011;9146;48.074;11.968;2023-12-22T12:50:00;3.10;;;2.00;;
18042;SDS011;9146;48.074;11.968;2023-12-22T12:52:27;5.23;;;1.83;;
18042;SDS011;9146;48.074;11.968;2023-12-22T12:54:55;2.40;;;1.50;;
18042;SDS011;9146;48.074;11.968;2023-12-22T12:57:23;10.00;;;1.73;;
18042;SDS011;9146;48.074;11.968;2023-12-22T12:59:50;4.80;;;1.80;;
18042;SDS011;9146;48.074;11.968;2023-12-22T13:02:17;9.10;;;1.80;;
18042;SDS011;9146;48.074;11.968;2023-12-22T13:04:47;8.40;;;2.03;;
18042;SDS011;9146;48.074;11.968;2023-12-22T13:07:14;7.93;;;2.20;;
18042;SDS011;9146;48.074;11.968;2023-12-22T13:09:50;3.33;;;1.37;;
18042;SDS011;9146;48.074;11.968;2023-12-22T13:12:18;3.33;;;1.67;;
18042;SDS011;9146;48.074;11.968;2023-12-22T13:14:45;12.97;;;2.20;;
18042;SDS011;9146;48.074;11.968;2023-12-22T13:17:13;5.50;;;1.40;;
18042;SDS011;9146;48.074;11.968;2023-12-22T13:19:40;8.20;;;1.97;;
18042;SDS011;9146;48.074;11.968;2023-12-22T13:22:08;2.07;;;1.60;;
18042;SDS011;9146;48.074;11.968;2023-12-22T13:24:36;7.50;;;1.60;;
18042;SDS011;9146;48.074;11.968;2023-12-22T13:27:03;7.77;;;1.47;;
18042;SDS011;9146;48.074;11.968;2023-12-22T13:29:41;11.07;;;2.00;;
18042;SDS011;9146;48.074;11.968;2023-12-22T13:32:14;4.90;;;1.40;;
18042;SDS011;9146;48.074;11.968;2023-12-22T13:34:46;4.93;;;1.27;;
18042;SDS011;9146;48.074;11.968;2023-12-22T13:37:18;1.60;;;1.50;;
18042;SDS011;9146;48.074;11.968;2023-12-22T13:39:45;3.03;;;1.43;;
18042;SDS011;9146;48.074;11.968;2023-12-22T13:42:16;2.70;;;1.20;;
18042;SDS011;9146;48.074;11.968;2023-12-22T13:44:45;1.20;;;1.20;;
18042;SDS011;9146;48.074;11.968;2023-12-22T13:47:14;4.07;;;1.40;;
18042;SDS011;9146;48.074;11.968;2023-12-22T13:49:42;5.70;;;1.33;;
18042;SDS011;9146;48.074;11.968;2023-12-22T13:55:10;3.10;;;1.40;;
18042;SDS011;9146;48.074;11.968;2023-12-22T13:57:38;1.63;;;1.53;;
18042;SDS011;9146;48.074;11.968;2023-12-22T14:02:51;4.87;;;1.70;;
18042;SDS011;9146;48.074;11.968;2023-12-22T14:05:18;2.43;;;1.67;;
18042;SDS011;9146;48.074;11.968;2023-12-22T14:07:45;6.93;;;1.60;;
18042;SDS011;9146;48.074;11.968;2023-12-22T14:10:14;5.03;;;2.07;;
18042;SDS011;9146;48.074;11.968;2023-12-22T14:12:41;2.80;;;1.40;;
18042;SDS011;9146;48.074;11.968;2023-12-22T14:15:09;3.13;;;1.43;;
18042;SDS011;9146;48.074;11.968;2023-12-22T14:17:36;6.27;;;1.60;;
18042;SDS011;9146;48.074;11.968;2023-12-22T14:20:04;8.57;;;1.67;;
18042;SDS011;9146;48.074;11.968;2023-12-22T14:22:34;8.27;;;2.00;;
18042;SDS011;9146;48.074;11.968;2023-12-22T14:25:02;3.60;;;1.70;;
18042;SDS011;9146;48.074;11.968;2023-12-22T14:27:31;3.60;;;1.33;;
18042;SDS011;9146;48.074;11.968;2023-12-22T14:29:58;2.90;;;1.37;;
18042;SDS011;9146;48.074;11.968;2023-12-22T14:32:25;4.70;;;1.63;;
18042;SDS011;9146;48.074;11.968;2023-12-22T14:34:52;1.20;;;1.10;;
18042;SDS011;9146;48.074;11.968;2023-12-22T14:37:18;7.90;;;1.57;;
18042;SDS011;9146;48.074;11.968;2023-12-22T14:39:46;5.33;;;1.90;;
18042;SDS011;9146;48.074;11.968;2023-12-22T14:42:13;3.77;;;1.10;;
18042;SDS011;9146;48.074;11.968;2023-12-22T14:44:41;1.20;;;1.07;;
18042;SDS011;9146;48.074;11.968;2023-12-22T14:47:09;1.67;;;0.93;;
18042;SDS011;9146;48.074;11.968;2023-12-22T14:49:38;2.40;;;1.40;;
18042;SDS011;9146;48.074;11.968;2023-12-22T14:52:05;2.33;;;1.70;;
18042;SDS011;9146;48.074;11.968;2023-12-22T14:54:33;2.37;;;1.20;;
18042;SDS011;9146;48.074;11.968;2023-12-22T14:57:00;1.30;;;1.10;;
18042;SDS011;9146;48.074;11.968;2023-12-22T14:59:26;1.23;;;1.17;;
18042;SDS011;9146;48.074;11.968;2023-12-22T15:01:55;4.93;;;1.20;;
18042;SDS011;9146;48.074;11.968;2023-12-22T15:04:22;1.27;;;1.10;;